sensor_id;sensor_type;location;lat;lon;timestamp;P1;durP1;ratioP1;P2;durP2;ratioP2
7289;SDS011;63176;52.678;13.250;2023-06-19T00:00:10;11.27;;;9.00;;
7289;SDS011;63176;52.678;13.250;2023-06-19T00:02:40;11.77;;;9.47;;
7289;SDS011;63176;52.678;13.250;2023-06-19T00:05:07;11.10;;;8.03;;
7289;SDS011;63176;52.678;13.250;2023-06-19T00:07:34;10.23;;;8.43;;
7289;SDS011;63176;52.678;13.250;2023-06-19T00:10:00;11.20;;;9.07;;
7289;SDS011;63176;52.678;13.250;2023-06-19T00:12:26;13.50;;;9.30;;
7289;SDS011;63176;52.678;13.250;2023-06-19T00:14:52;11.53;;;8.67;;
7289;SDS011;63176;52.678;13.250;2023-06-19T00:17:17;8.60;;;7.70;;
7289;SDS011;63176;52.678;13.250;2023-06-19T00:19:43;12.27;;;8.97;;
7289;SDS011;63176;52.678;13.250;2023-06-19T00:22:09;13.90;;;9.60;;
7289;SDS011;63176;52.678;13.250;2023-06-19T00:24:35;10.87;;;9.00;;
7289;SDS011;63176;52.678;13.250;2023-06-19T00:27:00;11.27;;;8.37;;
7289;SDS011;63176;52.678;13.250;2023-06-19T00:29:28;10.97;;;8.57;;
7289;SDS011;63176;52.678;13.250;2023-06-19T00:31:54;14.13;;;9.37;;
7289;SDS011;63176;52.678;13.250;2023-06-19T00:34:19;9.67;;;8.23;;
7289;SDS011;63176;52.678;13.250;2023-06-19T00:36:45;12.77;;;8.93;;
7289;SDS011;63176;52.678;13.250;2023-06-19T00:39:11;12.50;;;9.60;;
7289;SDS011;63176;52.678;13.250;2023-06-19T00:41:37;10.47;;;7.90;;
7289;SDS011;63176;52.678;13.250;2023-06-19T00:44:04;9.40;;;7.77;;
7289;SDS011;63176;52.678;13.250;2023-06-19T00:46:30;11.00;;;7.97;;
7289;SDS011;63176;52.678;13.250;2023-06-19T00:48:56;9.50;;;7.90;;
7289;SDS011;63176;52.678;13.250;2023-06-19T00:51:22;10.23;;;8.70;;
7289;SDS011;63176;52.678;13.250;2023-06-19T00:53:48;11.37;;;8.93;;
7289;SDS011;63176;52.678;13.250;2023-06-19T00:56:14;9.10;;;8.10;;
7289;SDS011;63176;52.678;13.250;2023-06-19T00:58:43;11.13;;;8.60;;
7289;SDS011;63176;52.678;13.250;2023-06-19T01:01:09;10.93;;;9.53;;
7289;SDS011;63176;52.678;13.250;2023-06-19T01:03:35;12.13;;;9.00;;
7289;SDS011;63176;52.678;13.250;2023-06-19T01:06:01;10.43;;;8.80;;
7289;SDS011;63176;52.678;13.250;2023-06-19T01:11:28;9.97;;;8.20;;
7289;SDS011;63176;52.678;13.250;2023-06-19T01:13:59;10.73;;;8.33;;
7289;SDS011;63176;52.678;13.250;2023-06-19T01:16:28;11.20;;;9.00;;
7289;SDS011;63176;52.678;13.250;2023-06-19T01:18:55;10.03;;;7.63;;
7289;SDS011;63176;52.678;13.250;2023-06-19T01:21:21;11.00;;;8.90;;
7289;SDS011;63176;52.678;13.250;2023-06-19T01:23:47;10.63;;;7.97;;
7289;SDS011;63176;52.678;13.250;2023-06-19T01:26:13;9.50;;;8.33;;
7289;SDS011;63176;52.678;13.250;2023-06-19T01:28:40;11.83;;;9.30;;
7289;SDS011;63176;52.678;13.250;2023-06-19T01:31:08;8.80;;;7.73;;
7289;SDS011;63176;52.678;13.250;2023-06-19T01:33:38;10.30;;;9.30;;
7289;SDS011;63176;52.678;13.250;2023-06-19T01:36:05;9.63;;;8.13;;
7289;SDS011;63176;52.678;13.250;2023-06-19T01:38:32;10.60;;;8.83;;
7289;SDS011;63176;52.678;13.250;2023-06-19T01:40:59;10.60;;;9.10;;
7289;SDS011;63176;52.678;13.250;2023-06-19T01:43:27;10.07;;;7.73;;
7289;SDS011;63176;52.678;13.250;2023-06-19T01:45:54;12.43;;;8.43;;
7289;SDS011;63176;52.678;13.250;2023-06-19T01:48:20;10.27;;;8.50;;
7289;SDS011;63176;52.678;13.250;2023-06-19T01:50:49;8.57;;;7.67;;
7289;SDS011;63176;52.678;13.250;2023-06-19T01:53:16;9.43;;;8.47;;
7289;SDS011;63176;52.678;13.250;2023-06-19T01:55:41;10.40;;;8.50;;
7289;SDS011;63176;52.678;13.250;2023-06-19T01:58:07;9.83;;;8.50;;
7289;SDS011;63176;52.678;13.250;2023-06-19T02:00:33;13.13;;;9.20;;
7289;SDS011;63176;52.678;13.250;2023-06-19T02:03:02;13.97;;;9.00;;
7289;SDS011;63176;52.678;13.250;2023-06-19T02:05:28;9.67;;;8.70;;
7289;SDS011;63176;52.678;13.250;2023-06-19T02:07:55;9.67;;;8.30;;
7289;SDS011;63176;52.678;13.250;2023-06-19T02:10:20;12.63;;;8.90;;
7289;SDS011;63176;52.678;13.250;2023-06-19T02:12:46;9.90;;;8.57;;
7289;SDS011;63176;52.678;13.250;2023-06-19T02:15:11;10.60;;;8.20;;
7289;SDS011;63176;52.678;13.250;2023-06-19T02:17:37;10.13;;;7.60;;
7289;SDS011;63176;52.678;13.250;2023-06-19T02:20:03;10.37;;;9.13;;
7289;SDS011;63176;52.678;13.250;2023-06-19T02:22:34;11.03;;;8.70;;
7289;SDS011;63176;52.678;13.250;2023-06-19T02:24:59;11.83;;;8.90;;
7289;SDS011;63176;52.678;13.250;2023-06-19T02:27:25;9.27;;;8.30;;
7289;SDS011;63176;52.678;13.250;2023-06-19T02:29:50;11.43;;;9.37;;
7289;SDS011;63176;52.678;13.250;2023-06-19T02:32:16;9.67;;;8.43;;
7289;SDS011;63176;52.678;13.250;2023-06-19T02:34:42;10.83;;;9.30;;
7289;SDS011;63176;52.678;13.250;2023-06-19T02:37:07;11.20;;;9.17;;
7289;SDS011;63176;52.678;13.250;2023-06-19T02:39:33;12.57;;;10.00;;
7289;SDS011;63176;52.678;13.250;2023-06-19T02:41:58;12.20;;;9.37;;
7289;SDS011;63176;52.678;13.250;2023-06-19T02:44:25;10.60;;;9.50;;
7289;SDS011;63176;52.678;13.250;2023-06-19T02:46:50;9.40;;;8.50;;
7289;SDS011;63176;52.678;13.250;2023-06-19T02:49:16;15.70;;;9.37;;
7289;SDS011;63176;52.678;13.250;2023-06-19T02:51:41;11.53;;;9.87;;
7289;SDS011;63176;52.678;13.250;2023-06-19T02:54:07;10.70;;;9.60;;
7289;SDS011;63176;52.678;13.250;2023-06-19T02:56:33;12.37;;;9.73;;
7289;SDS011;63176;52.678;13.250;2023-06-19T02:58:58;10.60;;;9.50;;
7289;SDS011;63176;52.678;13.250;2023-06-19T03:01:24;13.20;;;9.70;;
7289;SDS011;63176;52.678;13.250;2023-06-19T03:03:50;12.07;;;10.03;;
7289;SDS011;63176;52.678;13.250;2023-06-19T03:06:17;11.27;;;10.07;;
7289;SDS011;63176;52.678;13.250;2023-06-19T03:08:43;10.00;;;9.00;;
7289;SDS011;63176;52.678;13.250;2023-06-19T03:11:09;11.47;;;10.20;;
7289;SDS011;63176;52.678;13.250;2023-06-19T03:13:46;12.70;;;9.93;;
7289;SDS011;63176;52.678;13.250;2023-06-19T03:16:13;11.40;;;10.10;;
7289;SDS011;63176;52.678;13.250;2023-06-19T03:18:42;12.20;;;9.73;;
7289;SDS011;63176;52.678;13.250;2023-06-19T03:21:12;11.00;;;9.73;;
7289;SDS011;63176;52.678;13.250;2023-06-19T03:23:38;15.50;;;11.07;;
7289;SDS011;63176;52.678;13.250;2023-06-19T03:26:06;10.57;;;9.10;;
7289;SDS011;63176;52.678;13.250;2023-06-19T03:28:35;13.77;;;10.10;;
7289;SDS011;63176;52.678;13.250;2023-06-19T03:31:01;14.70;;;11.27;;
7289;SDS011;63176;52.678;13.250;2023-06-19T03:33:27;12.80;;;9.87;;
7289;SDS011;63176;52.678;13.250;2023-06-19T03:35:53;13.63;;;10.93;;
7289;SDS011;63176;52.678;13.250;2023-06-19T03:38:18;11.60;;;10.17;;
7289;SDS011;63176;52.678;13.250;2023-06-19T03:40:44;10.53;;;9.43;;
7289;SDS011;63176;52.678;13.250;2023-06-19T03:43:10;10.07;;;9.07;;
7289;SDS011;63176;52.678;13.250;2023-06-19T03:45:36;11.63;;;9.50;;
7289;SDS011;63176;52.678;13.250;2023-06-19T03:48:02;11.40;;;10.07;;
7289;SDS011;63176;52.678;13.250;2023-06-19T03:50:28;12.83;;;11.10;;
7289;SDS011;63176;52.678;13.250;2023-06-19T03:52:53;11.53;;;9.70;;
7289;SDS011;63176;52.678;13.250;2023-06-19T03:55:19;11.53;;;10.33;;
7289;SDS011;63176;52.678;13.250;2023-06-19T03:57:44;12.20;;;10.57;;
7289;SDS011;63176;52.678;13.250;2023-06-19T04:00:10;12.33;;;10.40;;
7289;SDS011;63176;52.678;13.250;2023-06-19T04:02:38;12.40;;;10.53;;
7289;SDS011;63176;52.678;13.250;2023-06-19T04:05:04;15.33;;;11.20;;
7289;SDS011;63176;52.678;13.250;2023-06-19T04:07:31;13.57;;;11.30;;
7289;SDS011;63176;52.678;13.250;2023-06-19T04:09:57;13.87;;;11.57;;
7289;SDS011;63176;52.678;13.250;2023-06-19T04:12:23;12.17;;;10.53;;
7289;SDS011;63176;52.678;13.250;2023-06-19T04:14:49;12.43;;;10.10;;
7289;SDS011;63176;52.678;13.250;2023-06-19T04:17:14;12.53;;;10.40;;
7289;SDS011;63176;52.678;13.250;2023-06-19T04:19:40;12.93;;;10.93;;
7289;SDS011;63176;52.678;13.250;2023-06-19T04:22:06;15.90;;;12.47;;
7289;SDS011;63176;52.678;13.250;2023-06-19T04:24:32;12.37;;;11.07;;
7289;SDS011;63176;52.678;13.250;2023-06-19T04:26:58;12.70;;;11.10;;
7289;SDS011;63176;52.678;13.250;2023-06-19T04:29:23;12.37;;;11.07;;
7289;SDS011;63176;52.678;13.250;2023-06-19T04:31:49;13.53;;;11.70;;
7289;SDS011;63176;52.678;13.250;2023-06-19T04:34:15;14.17;;;11.80;;
7289;SDS011;63176;52.678;13.250;2023-06-19T04:36:45;11.27;;;10.00;;
7289;SDS011;63176;52.678;13.250;2023-06-19T04:39:14;11.70;;;10.50;;
7289;SDS011;63176;52.678;13.250;2023-06-19T04:41:43;13.90;;;11.23;;
7289;SDS011;63176;52.678;13.250;2023-06-19T04:44:09;13.90;;;11.80;;
7289;SDS011;63176;52.678;13.250;2023-06-19T04:46:36;14.83;;;10.80;;
7289;SDS011;63176;52.678;13.250;2023-06-19T04:49:03;13.00;;;10.70;;
7289;SDS011;63176;52.678;13.250;2023-06-19T04:51:30;13.57;;;11.27;;
7289;SDS011;63176;52.678;13.250;2023-06-19T04:53:57;13.37;;;11.90;;
7289;SDS011;63176;52.678;13.250;2023-06-19T04:56:23;12.40;;;11.13;;
7289;SDS011;63176;52.678;13.250;2023-06-19T04:58:49;12.50;;;11.20;;
7289;SDS011;63176;52.678;13.250;2023-06-19T05:01:16;13.50;;;11.53;;
7289;SDS011;63176;52.678;13.250;2023-06-19T05:03:43;12.07;;;10.70;;
7289;SDS011;63176;52.678;13.250;2023-06-19T05:06:13;11.80;;;10.60;;
7289;SDS011;63176;52.678;13.250;2023-06-19T05:08:38;18.63;;;11.87;;
7289;SDS011;63176;52.678;13.250;2023-06-19T05:11:04;13.63;;;10.90;;
7289;SDS011;63176;52.678;13.250;2023-06-19T05:13:30;11.57;;;10.37;;
7289;SDS011;63176;52.678;13.250;2023-06-19T05:15:55;13.10;;;11.53;;
7289;SDS011;63176;52.678;13.250;2023-06-19T05:18:21;12.50;;;10.70;;
7289;SDS011;63176;52.678;13.250;2023-06-19T05:20:47;20.80;;;10.97;;
7289;SDS011;63176;52.678;13.250;2023-06-19T05:23:13;14.40;;;10.40;;
7289;SDS011;63176;52.678;13.250;2023-06-19T05:25:38;17.57;;;11.53;;
7289;SDS011;63176;52.678;13.250;2023-06-19T05:28:04;11.60;;;10.00;;
7289;SDS011;63176;52.678;13.250;2023-06-19T05:30:30;10.97;;;9.80;;
7289;SDS011;63176;52.678;13.250;2023-06-19T05:32:55;11.83;;;10.20;;
7289;SDS011;63176;52.678;13.250;2023-06-19T05:35:21;11.53;;;10.33;;
7289;SDS011;63176;52.678;13.250;2023-06-19T05:37:47;12.00;;;10.43;;
7289;SDS011;63176;52.678;13.250;2023-06-19T05:40:13;13.10;;;11.50;;
7289;SDS011;63176;52.678;13.250;2023-06-19T05:42:42;12.57;;;10.60;;
7289;SDS011;63176;52.678;13.250;2023-06-19T05:45:08;12.97;;;11.57;;
7289;SDS011;63176;52.678;13.250;2023-06-19T05:47:34;14.00;;;11.40;;
7289;SDS011;63176;52.678;13.250;2023-06-19T05:50:00;12.73;;;11.03;;
7289;SDS011;63176;52.678;13.250;2023-06-19T05:52:25;14.33;;;12.30;;
7289;SDS011;63176;52.678;13.250;2023-06-19T05:54:51;13.40;;;12.00;;
7289;SDS011;63176;52.678;13.250;2023-06-19T05:57:18;11.97;;;10.63;;
7289;SDS011;63176;52.678;13.250;2023-06-19T05:59:49;13.87;;;10.50;;
7289;SDS011;63176;52.678;13.250;2023-06-19T06:02:16;13.20;;;11.63;;
7289;SDS011;63176;52.678;13.250;2023-06-19T06:04:45;14.77;;;11.00;;
7289;SDS011;63176;52.678;13.250;2023-06-19T06:07:11;13.93;;;11.93;;
7289;SDS011;63176;52.678;13.250;2023-06-19T06:09:36;11.13;;;9.83;;
7289;SDS011;63176;52.678;13.250;2023-06-19T06:12:03;13.93;;;10.93;;
7289;SDS011;63176;52.678;13.250;2023-06-19T06:14:29;13.50;;;11.17;;
7289;SDS011;63176;52.678;13.250;2023-06-19T06:16:54;20.93;;;10.30;;
7289;SDS011;63176;52.678;13.250;2023-06-19T06:19:20;14.00;;;9.83;;
7289;SDS011;63176;52.678;13.250;2023-06-19T06:21:49;12.33;;;11.03;;
7289;SDS011;63176;52.678;13.250;2023-06-19T06:24:14;15.43;;;10.53;;
7289;SDS011;63176;52.678;13.250;2023-06-19T06:26:40;11.30;;;10.10;;
7289;SDS011;63176;52.678;13.250;2023-06-19T06:29:06;11.87;;;10.63;;
7289;SDS011;63176;52.678;13.250;2023-06-19T06:31:33;11.60;;;10.17;;
7289;SDS011;63176;52.678;13.250;2023-06-19T06:33:58;11.40;;;10.20;;
7289;SDS011;63176;52.678;13.250;2023-06-19T06:36:24;12.40;;;11.10;;
7289;SDS011;63176;52.678;13.250;2023-06-19T06:38:50;11.80;;;10.57;;
7289;SDS011;63176;52.678;13.250;2023-06-19T06:41:15;10.90;;;9.80;;
7289;SDS011;63176;52.678;13.250;2023-06-19T06:43:41;12.30;;;10.83;;
7289;SDS011;63176;52.678;13.250;2023-06-19T06:46:09;14.00;;;12.20;;
7289;SDS011;63176;52.678;13.250;2023-06-19T06:48:35;13.93;;;11.73;;
7289;SDS011;63176;52.678;13.250;2023-06-19T06:51:02;13.67;;;11.30;;
7289;SDS011;63176;52.678;13.250;2023-06-19T06:53:27;11.87;;;10.67;;
7289;SDS011;63176;52.678;13.250;2023-06-19T06:55:54;13.50;;;10.57;;
7289;SDS011;63176;52.678;13.250;2023-06-19T06:58:20;18.00;;;11.50;;
7289;SDS011;63176;52.678;13.250;2023-06-19T07:00:45;12.87;;;10.87;;
7289;SDS011;63176;52.678;13.250;2023-06-19T07:03:12;11.93;;;10.73;;
7289;SDS011;63176;52.678;13.250;2023-06-19T07:05:38;12.77;;;11.47;;
7289;SDS011;63176;52.678;13.250;2023-06-19T07:08:03;13.53;;;11.70;;
7289;SDS011;63176;52.678;13.250;2023-06-19T07:10:29;17.67;;;11.97;;
7289;SDS011;63176;52.678;13.250;2023-06-19T07:12:55;20.33;;;10.93;;
7289;SDS011;63176;52.678;13.250;2023-06-19T07:15:21;12.00;;;10.73;;
7289;SDS011;63176;52.678;13.250;2023-06-19T07:17:47;14.30;;;11.30;;
7289;SDS011;63176;52.678;13.250;2023-06-19T07:20:13;13.07;;;10.80;;
7289;SDS011;63176;52.678;13.250;2023-06-19T07:22:39;16.07;;;12.00;;
7289;SDS011;63176;52.678;13.250;2023-06-19T07:25:06;15.23;;;11.73;;
7289;SDS011;63176;52.678;13.250;2023-06-19T07:27:32;15.00;;;12.00;;
7289;SDS011;63176;52.678;13.250;2023-06-19T07:29:58;12.40;;;11.10;;
7289;SDS011;63176;52.678;13.250;2023-06-19T07:32:24;17.90;;;11.30;;
7289;SDS011;63176;52.678;13.250;2023-06-19T07:34:49;12.53;;;10.70;;
7289;SDS011;63176;52.678;13.250;2023-06-19T07:37:15;13.10;;;11.70;;
7289;SDS011;63176;52.678;13.250;2023-06-19T07:39:46;12.80;;;11.40;;
7289;SDS011;63176;52.678;13.250;2023-06-19T07:42:13;16.00;;;11.00;;
7289;SDS011;63176;52.678;13.250;2023-06-19T07:44:39;13.53;;;11.90;;
7289;SDS011;63176;52.678;13.250;2023-06-19T07:47:06;17.70;;;11.37;;
7289;SDS011;63176;52.678;13.250;2023-06-19T07:49:32;15.67;;;11.47;;
7289;SDS011;63176;52.678;13.250;2023-06-19T07:51:57;13.53;;;11.70;;
7289;SDS011;63176;52.678;13.250;2023-06-19T07:54:23;12.60;;;10.93;;
7289;SDS011;63176;52.678;13.250;2023-06-19T07:56:49;11.93;;;10.47;;
7289;SDS011;63176;52.678;13.250;2023-06-19T07:59:14;19.33;;;13.70;;
7289;SDS011;63176;52.678;13.250;2023-06-19T08:01:41;15.37;;;10.87;;
7289;SDS011;63176;52.678;13.250;2023-06-19T08:04:07;13.03;;;11.40;;
7289;SDS011;63176;52.678;13.250;2023-06-19T08:06:33;12.37;;;10.57;;
7289;SDS011;63176;52.678;13.250;2023-06-19T08:08:59;11.77;;;10.40;;
7289;SDS011;63176;52.678;13.250;2023-06-19T08:11:24;13.67;;;11.50;;
7289;SDS011;63176;52.678;13.250;2023-06-19T08:13:50;14.43;;;11.07;;
7289;SDS011;63176;52.678;13.250;2023-06-19T08:16:16;12.30;;;11.00;;
7289;SDS011;63176;52.678;13.250;2023-06-19T08:18:43;14.33;;;11.60;;
7289;SDS011;63176;52.678;13.250;2023-06-19T08:21:09;12.30;;;10.23;;
7289;SDS011;63176;52.678;13.250;2023-06-19T08:23:36;12.67;;;11.07;;
7289;SDS011;63176;52.678;13.250;2023-06-19T08:26:04;12.07;;;10.77;;
7289;SDS011;63176;52.678;13.250;2023-06-19T08:28:33;12.97;;;11.10;;
7289;SDS011;63176;52.678;13.250;2023-06-19T08:30:59;12.07;;;10.23;;
7289;SDS011;63176;52.678;13.250;2023-06-19T08:33:25;13.00;;;11.17;;
7289;SDS011;63176;52.678;13.250;2023-06-19T08:35:50;12.80;;;10.90;;
7289;SDS011;63176;52.678;13.250;2023-06-19T08:38:17;15.60;;;11.27;;
7289;SDS011;63176;52.678;13.250;2023-06-19T08:40:43;12.90;;;11.40;;
7289;SDS011;63176;52.678;13.250;2023-06-19T08:43:09;12.07;;;10.57;;
7289;SDS011;63176;52.678;13.250;2023-06-19T08:45:35;11.60;;;10.50;;
7289;SDS011;63176;52.678;13.250;2023-06-19T08:48:01;13.33;;;11.93;;
7289;SDS011;63176;52.678;13.250;2023-06-19T08:50:31;12.47;;;11.07;;
7289;SDS011;63176;52.678;13.250;2023-06-19T08:52:57;11.77;;;9.90;;
7289;SDS011;63176;52.678;13.250;2023-06-19T08:55:23;11.40;;;10.20;;
7289;SDS011;63176;52.678;13.250;2023-06-19T08:57:49;14.87;;;11.43;;
7289;SDS011;63176;52.678;13.250;2023-06-19T09:00:27;14.30;;;11.63;;
7289;SDS011;63176;52.678;13.250;2023-06-19T09:02:58;15.37;;;11.30;;
7289;SDS011;63176;52.678;13.250;2023-06-19T09:05:26;13.40;;;11.00;;
7289;SDS011;63176;52.678;13.250;2023-06-19T09:07:56;14.63;;;10.80;;
7289;SDS011;63176;52.678;13.250;2023-06-19T09:10:23;13.90;;;10.97;;
7289;SDS011;63176;52.678;13.250;2023-06-19T09:12:56;19.73;;;11.20;;
7289;SDS011;63176;52.678;13.250;2023-06-19T09:15:23;16.03;;;11.83;;
7289;SDS011;63176;52.678;13.250;2023-06-19T09:20:30;13.57;;;11.50;;
7289;SDS011;63176;52.678;13.250;2023-06-19T09:22:57;12.93;;;10.97;;
7289;SDS011;63176;52.678;13.250;2023-06-19T09:25:24;13.10;;;10.47;;
7289;SDS011;63176;52.678;13.250;2023-06-19T09:27:51;12.53;;;10.73;;
7289;SDS011;63176;52.678;13.250;2023-06-19T09:30:20;13.70;;;11.47;;
7289;SDS011;63176;52.678;13.250;2023-06-19T09:32:47;13.77;;;11.23;;
7289;SDS011;63176;52.678;13.250;2023-06-19T09:35:13;14.37;;;10.90;;
7289;SDS011;63176;52.678;13.250;2023-06-19T09:37:39;13.20;;;11.13;;
7289;SDS011;63176;52.678;13.250;2023-06-19T09:40:08;12.70;;;11.40;;
7289;SDS011;63176;52.678;13.250;2023-06-19T09:42:35;14.60;;;11.70;;
7289;SDS011;63176;52.678;13.250;2023-06-19T09:45:03;13.27;;;11.80;;
7289;SDS011;63176;52.678;13.250;2023-06-19T09:47:31;13.00;;;10.80;;
7289;SDS011;63176;52.678;13.250;2023-06-19T09:50:01;12.90;;;11.63;;
7289;SDS011;63176;52.678;13.250;2023-06-19T09:52:28;14.47;;;10.43;;
7289;SDS011;63176;52.678;13.250;2023-06-19T09:54:54;12.63;;;11.30;;
7289;SDS011;63176;52.678;13.250;2023-06-19T09:57:21;11.53;;;9.70;;
7289;SDS011;63176;52.678;13.250;2023-06-19T09:59:52;13.70;;;12.27;;
7289;SDS011;63176;52.678;13.250;2023-06-19T10:02:19;18.43;;;10.57;;
7289;SDS011;63176;52.678;13.250;2023-06-19T10:04:48;11.37;;;10.20;;
7289;SDS011;63176;52.678;13.250;2023-06-19T10:07:20;14.00;;;11.17;;
7289;SDS011;63176;52.678;13.250;2023-06-19T10:10:06;13.63;;;10.07;;
7289;SDS011;63176;52.678;13.250;2023-06-19T10:12:37;14.07;;;11.33;;
7289;SDS011;63176;52.678;13.250;2023-06-19T10:17:38;12.60;;;10.67;;
7289;SDS011;63176;52.678;13.250;2023-06-19T10:23:15;11.87;;;10.57;;
7289;SDS011;63176;52.678;13.250;2023-06-19T10:25:46;12.80;;;10.10;;
7289;SDS011;63176;52.678;13.250;2023-06-19T10:28:19;12.80;;;10.50;;
7289;SDS011;63176;52.678;13.250;2023-06-19T10:30:53;11.23;;;9.57;;
7289;SDS011;63176;52.678;13.250;2023-06-19T10:33:27;12.50;;;11.20;;
7289;SDS011;63176;52.678;13.250;2023-06-19T10:36:00;11.93;;;10.10;;
7289;SDS011;63176;52.678;13.250;2023-06-19T10:38:27;12.37;;;10.30;;
7289;SDS011;63176;52.678;13.250;2023-06-19T10:40:53;13.40;;;10.00;;
7289;SDS011;63176;52.678;13.250;2023-06-19T10:43:19;13.27;;;10.40;;
7289;SDS011;63176;52.678;13.250;2023-06-19T10:45:47;10.80;;;9.37;;
7289;SDS011;63176;52.678;13.250;2023-06-19T10:48:17;12.70;;;11.10;;
7289;SDS011;63176;52.678;13.250;2023-06-19T10:50:48;12.23;;;9.80;;
7289;SDS011;63176;52.678;13.250;2023-06-19T10:53:27;12.00;;;10.17;;
7289;SDS011;63176;52.678;13.250;2023-06-19T10:55:56;11.50;;;10.33;;
7289;SDS011;63176;52.678;13.250;2023-06-19T10:58:26;11.23;;;9.93;;
7289;SDS011;63176;52.678;13.250;2023-06-19T11:00:52;10.67;;;9.63;;
7289;SDS011;63176;52.678;13.250;2023-06-19T11:03:19;11.30;;;10.10;;
7289;SDS011;63176;52.678;13.250;2023-06-19T11:05:46;11.87;;;10.33;;
7289;SDS011;63176;52.678;13.250;2023-06-19T11:08:17;10.80;;;9.70;;
7289;SDS011;63176;52.678;13.250;2023-06-19T11:10:47;11.33;;;10.03;;
7289;SDS011;63176;52.678;13.250;2023-06-19T11:13:13;11.80;;;10.07;;
7289;SDS011;63176;52.678;13.250;2023-06-19T11:15:44;11.43;;;10.23;;
7289;SDS011;63176;52.678;13.250;2023-06-19T11:18:10;12.33;;;11.03;;
7289;SDS011;63176;52.678;13.250;2023-06-19T11:20:46;10.70;;;9.60;;
7289;SDS011;63176;52.678;13.250;2023-06-19T11:23:14;11.13;;;10.03;;
7289;SDS011;63176;52.678;13.250;2023-06-19T11:25:40;11.00;;;9.93;;
7289;SDS011;63176;52.678;13.250;2023-06-19T11:28:10;12.50;;;11.10;;
7289;SDS011;63176;52.678;13.250;2023-06-19T11:30:38;11.83;;;10.23;;
7289;SDS011;63176;52.678;13.250;2023-06-19T11:33:14;10.23;;;9.13;;
7289;SDS011;63176;52.678;13.250;2023-06-19T11:35:49;12.90;;;11.53;;
7289;SDS011;63176;52.678;13.250;2023-06-19T11:38:17;12.07;;;10.83;;
7289;SDS011;63176;52.678;13.250;2023-06-19T11:40:43;11.77;;;10.57;;
7289;SDS011;63176;52.678;13.250;2023-06-19T11:43:10;11.37;;;10.17;;
7289;SDS011;63176;52.678;13.250;2023-06-19T11:45:47;11.13;;;10.00;;
7289;SDS011;63176;52.678;13.250;2023-06-19T11:48:13;10.40;;;9.30;;
7289;SDS011;63176;52.678;13.250;2023-06-19T11:50:39;13.43;;;9.37;;
7289;SDS011;63176;52.678;13.250;2023-06-19T11:53:04;10.70;;;9.10;;
7289;SDS011;63176;52.678;13.250;2023-06-19T11:55:30;11.73;;;9.03;;
7289;SDS011;63176;52.678;13.250;2023-06-19T11:57:56;10.17;;;9.17;;
7289;SDS011;63176;52.678;13.250;2023-06-19T12:00:21;9.70;;;8.80;;
7289;SDS011;63176;52.678;13.250;2023-06-19T12:02:47;8.93;;;7.97;;
7289;SDS011;63176;52.678;13.250;2023-06-19T12:05:13;9.90;;;9.00;;
7289;SDS011;63176;52.678;13.250;2023-06-19T12:07:39;9.70;;;8.70;;
7289;SDS011;63176;52.678;13.250;2023-06-19T12:10:05;9.17;;;8.27;;
7289;SDS011;63176;52.678;13.250;2023-06-19T12:12:35;10.10;;;9.00;;
7289;SDS011;63176;52.678;13.250;2023-06-19T12:15:02;9.60;;;8.60;;
7289;SDS011;63176;52.678;13.250;2023-06-19T12:17:29;9.60;;;8.70;;
7289;SDS011;63176;52.678;13.250;2023-06-19T12:19:55;8.93;;;8.07;;
7289;SDS011;63176;52.678;13.250;2023-06-19T12:22:20;8.47;;;7.57;;
7289;SDS011;63176;52.678;13.250;2023-06-19T12:24:46;8.83;;;7.40;;
7289;SDS011;63176;52.678;13.250;2023-06-19T12:27:12;7.47;;;6.77;;
7289;SDS011;63176;52.678;13.250;2023-06-19T12:29:37;7.57;;;6.87;;
7289;SDS011;63176;52.678;13.250;2023-06-19T12:32:03;8.87;;;8.07;;
7289;SDS011;63176;52.678;13.250;2023-06-19T12:34:29;8.93;;;8.03;;
7289;SDS011;63176;52.678;13.250;2023-06-19T12:36:55;9.63;;;8.10;;
7289;SDS011;63176;52.678;13.250;2023-06-19T12:39:22;10.50;;;8.03;;
7289;SDS011;63176;52.678;13.250;2023-06-19T12:41:48;8.50;;;7.70;;
7289;SDS011;63176;52.678;13.250;2023-06-19T12:44:13;9.83;;;7.80;;
7289;SDS011;63176;52.678;13.250;2023-06-19T12:46:39;8.40;;;7.60;;
7289;SDS011;63176;52.678;13.250;2023-06-19T12:49:05;8.83;;;7.80;;
7289;SDS011;63176;52.678;13.250;2023-06-19T12:51:30;7.67;;;6.93;;
7289;SDS011;63176;52.678;13.250;2023-06-19T12:53:56;8.57;;;7.67;;
7289;SDS011;63176;52.678;13.250;2023-06-19T12:56:21;7.60;;;6.80;;
7289;SDS011;63176;52.678;13.250;2023-06-19T12:58:47;7.33;;;6.63;;
7289;SDS011;63176;52.678;13.250;2023-06-19T13:01:13;7.63;;;6.83;;
7289;SDS011;63176;52.678;13.250;2023-06-19T13:03:38;7.60;;;6.57;;
7289;SDS011;63176;52.678;13.250;2023-06-19T13:06:04;7.10;;;6.40;;
7289;SDS011;63176;52.678;13.250;2023-06-19T13:08:30;8.57;;;7.77;;
7289;SDS011;63176;52.678;13.250;2023-06-19T13:10:55;8.10;;;7.30;;
7289;SDS011;63176;52.678;13.250;2023-06-19T13:13:21;8.20;;;7.50;;
7289;SDS011;63176;52.678;13.250;2023-06-19T13:15:46;7.93;;;7.13;;
7289;SDS011;63176;52.678;13.250;2023-06-19T13:18:12;9.27;;;7.23;;
7289;SDS011;63176;52.678;13.250;2023-06-19T13:20:38;7.30;;;6.70;;
7289;SDS011;63176;52.678;13.250;2023-06-19T13:23:03;7.60;;;6.90;;
7289;SDS011;63176;52.678;13.250;2023-06-19T13:25:29;8.90;;;7.27;;
7289;SDS011;63176;52.678;13.250;2023-06-19T13:27:55;8.23;;;7.13;;
7289;SDS011;63176;52.678;13.250;2023-06-19T13:30:20;7.50;;;6.80;;
7289;SDS011;63176;52.678;13.250;2023-06-19T13:32:46;8.17;;;7.40;;
7289;SDS011;63176;52.678;13.250;2023-06-19T13:35:11;7.20;;;6.50;;
7289;SDS011;63176;52.678;13.250;2023-06-19T13:37:37;8.53;;;6.70;;
7289;SDS011;63176;52.678;13.250;2023-06-19T13:40:06;7.33;;;6.63;;
7289;SDS011;63176;52.678;13.250;2023-06-19T13:42:32;7.97;;;7.27;;
7289;SDS011;63176;52.678;13.250;2023-06-19T13:45:00;8.53;;;6.10;;
7289;SDS011;63176;52.678;13.250;2023-06-19T13:47:26;7.50;;;6.10;;
7289;SDS011;63176;52.678;13.250;2023-06-19T13:49:52;9.20;;;5.77;;
7289;SDS011;63176;52.678;13.250;2023-06-19T13:52:18;7.83;;;7.03;;
7289;SDS011;63176;52.678;13.250;2023-06-19T13:54:44;7.20;;;6.50;;
7289;SDS011;63176;52.678;13.250;2023-06-19T13:57:09;6.97;;;6.37;;
7289;SDS011;63176;52.678;13.250;2023-06-19T13:59:35;8.03;;;6.67;;
7289;SDS011;63176;52.678;13.250;2023-06-19T14:02:01;8.97;;;8.10;;
7289;SDS011;63176;52.678;13.250;2023-06-19T14:04:27;7.50;;;6.80;;
7289;SDS011;63176;52.678;13.250;2023-06-19T14:06:52;7.40;;;6.60;;
7289;SDS011;63176;52.678;13.250;2023-06-19T14:09:19;6.97;;;6.30;;
7289;SDS011;63176;52.678;13.250;2023-06-19T14:11:45;9.73;;;8.13;;
7289;SDS011;63176;52.678;13.250;2023-06-19T14:14:11;7.93;;;7.13;;
7289;SDS011;63176;52.678;13.250;2023-06-19T14:16:37;10.33;;;7.87;;
7289;SDS011;63176;52.678;13.250;2023-06-19T14:19:02;9.20;;;8.30;;
7289;SDS011;63176;52.678;13.250;2023-06-19T14:21:28;9.10;;;8.13;;
7289;SDS011;63176;52.678;13.250;2023-06-19T14:23:54;8.63;;;7.83;;
7289;SDS011;63176;52.678;13.250;2023-06-19T14:26:19;8.93;;;7.97;;
7289;SDS011;63176;52.678;13.250;2023-06-19T14:28:46;9.00;;;8.10;;
7289;SDS011;63176;52.678;13.250;2023-06-19T14:31:11;9.80;;;8.50;;
7289;SDS011;63176;52.678;13.250;2023-06-19T14:33:37;8.73;;;7.60;;
7289;SDS011;63176;52.678;13.250;2023-06-19T14:36:03;9.27;;;7.17;;
7289;SDS011;63176;52.678;13.250;2023-06-19T14:38:29;8.13;;;7.43;;